Terminal Aerodrome Forecast
Issued by NWS Sterling, VA

Current Version | Previous Version | Text Only | Print | Product List | Glossary Off
Versions: 1 2 3 4 5 6 7 8 9 10 11 12 13 14 15 16 17 18 19 20 21

000
FTUS41 KLWX 232331
TAFIAD
TAF
KIAD 232331Z 2400/2506 21004KT P6SM SKC
     FM240400 00000KT P6SM FEW250
     FM241400 19005KT P6SM FEW060 SCT250
     FM242300 17005KT P6SM BKN080=

USA.gov is the U.S. government's official web portal to all federal, state and local government web resources and services.